createdAt,value
2018-06-08T00:00:40.310Z,70.20
2018-06-08T00:03:10.437Z,70.00
2018-06-08T00:05:40.559Z,70.20
2018-06-08T00:08:10.792Z,70.10
2018-06-08T00:10:40.915Z,70.40
2018-06-08T00:13:10.963Z,71.10
2018-06-08T00:15:41.071Z,70.90
2018-06-08T00:18:11.183Z,71.50
2018-06-08T00:20:41.279Z,71.60
2018-06-08T00:23:11.352Z,72.00
2018-06-08T00:25:41.530Z,72.10
2018-06-08T00:30:41.388Z,72.40
2018-06-08T00:33:11.572Z,72.50
2018-06-08T00:35:41.747Z,72.70
2018-06-08T00:38:11.916Z,73.20
2018-06-08T00:40:42.139Z,73.20
2018-06-08T00:43:12.324Z,73.40
2018-06-08T00:45:42.465Z,73.10
2018-06-08T00:48:12.588Z,73.10
2018-06-08T00:50:42.657Z,73.10
2018-06-08T00:53:12.822Z,73.40
2018-06-08T00:55:43.047Z,73.60
2018-06-08T00:58:13.123Z,73.40
2018-06-08T01:00:43.203Z,73.40
2018-06-08T01:03:13.302Z,73.50
2018-06-08T01:05:43.520Z,73.50
2018-06-08T01:08:13.657Z,73.60
2018-06-08T01:10:43.708Z,73.60
2018-06-08T01:13:14.212Z,73.70
2018-06-08T01:18:14.153Z,73.50
2018-06-08T01:20:44.323Z,73.40
2018-06-08T01:23:14.455Z,73.50
2018-06-08T01:25:44.531Z,73.30
2018-06-08T01:30:44.423Z,73.30
2018-06-08T01:33:14.599Z,73.50
2018-06-08T01:35:44.715Z,73.60
2018-06-08T01:38:14.937Z,73.70
2018-06-08T01:40:45.059Z,73.50
2018-06-08T01:43:15.222Z,73.60
2018-06-08T01:45:45.342Z,73.90
2018-06-08T01:48:15.490Z,74.10
2018-06-08T01:50:45.592Z,74.10
2018-06-08T01:53:15.656Z,74.10
2018-06-08T01:55:45.816Z,74.10
2018-06-08T01:58:15.887Z,74.10
2018-06-08T02:00:45.976Z,73.90
2018-06-08T02:03:16.081Z,73.80
2018-06-08T02:05:46.127Z,73.80
2018-06-08T02:08:16.467Z,73.80
2018-06-08T02:10:46.584Z,73.80
2018-06-08T02:13:16.676Z,73.80
2018-06-08T02:15:46.848Z,73.90
2018-06-08T02:18:16.961Z,74.10
2018-06-08T02:20:47.126Z,74.30
2018-06-08T02:23:17.239Z,74.60
2018-06-08T02:25:47.383Z,74.60
2018-06-08T02:28:17.583Z,74.80
2018-06-08T02:30:47.732Z,74.80
2018-06-08T02:33:17.825Z,74.60
2018-06-08T02:35:47.981Z,74.90
2018-06-08T02:38:18.072Z,74.90
2018-06-08T02:40:48.120Z,75.20
2018-06-08T02:43:18.213Z,75.00
2018-06-08T02:45:48.331Z,75.00
2018-06-08T02:48:18.463Z,75.30
2018-06-08T02:50:48.641Z,75.30
2018-06-08T02:53:18.740Z,75.30
2018-06-08T02:55:48.788Z,75.70
2018-06-08T02:58:18.920Z,75.90
2018-06-08T03:00:49.039Z,76.40
2018-06-08T03:03:19.200Z,75.80
2018-06-08T03:05:49.268Z,75.90
2018-06-08T03:08:19.453Z,76.00
2018-06-08T03:10:49.651Z,76.00
2018-06-08T03:15:49.401Z,76.90
2018-06-08T03:18:19.561Z,76.40
2018-06-08T03:20:49.714Z,76.50
2018-06-08T03:23:19.869Z,76.80
2018-06-08T03:25:49.960Z,77.60
2018-06-08T03:28:20.121Z,76.80
2018-06-08T03:30:50.295Z,76.80
2018-06-08T03:33:20.421Z,76.80
2018-06-08T03:35:50.527Z,77.10
2018-06-08T03:38:22.921Z,77.10
2018-06-08T03:40:53.417Z,77.30
2018-06-08T03:43:26.326Z,77.60
2018-06-08T03:45:56.472Z,77.60
2018-06-08T03:48:28.529Z,77.60
2018-06-08T03:51:01.314Z,77.70
2018-06-08T03:53:31.381Z,77.90
2018-06-08T03:56:01.424Z,78.10
2018-06-08T03:58:31.673Z,78.20
2018-06-08T04:01:01.822Z,78.60
2018-06-08T04:03:31.899Z,78.90
2018-06-08T04:13:00.774Z,79.20
2018-06-08T04:18:26.707Z,79.10
2018-06-08T04:28:42.921Z,79.00
2018-06-08T04:31:13.523Z,78.30
2018-06-08T04:33:44.381Z,78.70
2018-06-08T04:36:15.046Z,78.80
2018-06-08T04:38:50.345Z,79.10
2018-06-08T04:41:45.839Z,79.50
2018-06-08T04:47:18.964Z,80.10
2018-06-08T04:49:49.843Z,80.30
2018-06-08T04:52:19.957Z,80.40
2018-06-08T06:50:50.147Z,77.50
2018-06-08T06:53:22.072Z,78.20
2018-06-08T06:55:58.358Z,78.00
2018-06-08T11:48:05.582Z,81.90
2018-06-08T11:50:35.740Z,81.80
2018-06-08T11:53:05.834Z,81.80
2018-06-08T11:55:35.960Z,81.70
2018-06-08T11:58:05.991Z,81.60
2018-06-08T12:00:36.720Z,81.80
2018-06-08T12:03:07.044Z,82.80
2018-06-08T12:05:37.518Z,82.80
2018-06-08T12:10:37.453Z,83.10
2018-06-08T12:13:07.477Z,83.50
2018-06-08T12:15:37.490Z,83.30
2018-06-08T12:18:07.507Z,83.80
2018-06-08T12:20:37.576Z,84.10
2018-06-08T12:23:07.570Z,84.50
2018-06-08T12:25:37.602Z,84.70
2018-06-08T12:28:07.636Z,85.20
2018-06-08T12:30:37.652Z,85.40
2018-06-08T12:33:08.070Z,86.00
2018-06-08T12:35:38.149Z,86.40
2018-06-08T12:38:08.194Z,86.00
2018-06-08T12:40:38.202Z,86.30
2018-06-08T12:43:08.196Z,86.20
2018-06-08T12:45:38.240Z,85.90
2018-06-08T12:48:10.801Z,85.80
2018-06-08T12:50:40.909Z,86.00
2018-06-08T12:53:11.217Z,85.60
2018-06-08T12:55:41.544Z,85.60
2018-06-08T12:58:11.893Z,85.60
2018-06-08T13:00:43.235Z,85.60
2018-06-08T13:03:16.227Z,85.70
2018-06-08T13:05:46.521Z,85.80
2018-06-08T13:08:16.594Z,86.20
2018-06-08T13:10:46.786Z,86.20
2018-06-08T13:13:16.867Z,86.20
2018-06-08T13:15:47.035Z,86.60
2018-06-08T13:18:17.464Z,86.40
2018-06-08T13:20:47.686Z,86.00
2018-06-08T13:23:17.835Z,85.90
2018-06-08T13:25:48.129Z,85.70
2018-06-08T13:28:18.378Z,85.50
2018-06-08T13:30:48.592Z,85.10
2018-06-08T13:33:18.826Z,84.20
2018-06-08T13:35:49.082Z,83.60
2018-06-08T13:38:19.375Z,83.20
2018-06-08T13:40:49.643Z,82.60
2018-06-08T13:43:19.887Z,82.10
2018-06-08T13:45:50.138Z,82.00
2018-06-08T13:48:20.478Z,82.00
2018-06-08T13:50:50.792Z,82.00
2018-06-08T13:53:21.009Z,82.10
2018-06-08T13:55:51.215Z,82.20
2018-06-08T13:58:21.416Z,82.60
2018-06-08T14:00:51.583Z,82.50
2018-06-08T14:03:21.821Z,82.60
2018-06-08T14:05:52.031Z,83.00
2018-06-08T14:08:22.255Z,83.00
2018-06-08T14:10:52.523Z,82.60
2018-06-08T14:13:22.733Z,82.00
2018-06-08T14:15:52.927Z,81.40
2018-06-08T14:18:23.355Z,81.30
2018-06-08T14:20:53.580Z,80.90
2018-06-08T14:23:23.919Z,80.80
2018-06-08T14:25:54.138Z,80.90
2018-06-08T14:28:24.322Z,81.20
2018-06-08T14:30:54.531Z,81.40
2018-06-08T14:33:24.735Z,81.40
2018-06-08T14:38:24.811Z,81.50
2018-06-08T14:40:55.253Z,81.70
2018-06-08T14:43:25.495Z,81.20
2018-06-08T14:45:55.959Z,81.20
2018-06-08T14:48:26.349Z,81.00
2018-06-08T14:50:56.726Z,81.00
2018-06-08T14:53:27.385Z,80.80
2018-06-08T14:56:00.066Z,80.80
2018-06-08T14:58:31.509Z,80.50
2018-06-08T15:01:01.823Z,80.60
2018-06-08T15:03:32.229Z,80.70
2018-06-08T15:06:02.576Z,80.60
2018-06-08T15:08:32.960Z,80.50
2018-06-08T15:11:03.538Z,80.20
2018-06-08T15:13:33.967Z,80.20
2018-06-08T15:16:04.284Z,80.10
2018-06-08T15:18:34.477Z,79.90
2018-06-08T15:21:04.889Z,79.50
2018-06-08T15:23:35.131Z,79.40
2018-06-08T15:26:05.821Z,79.00
2018-06-08T15:28:37.618Z,78.70
2018-06-08T15:31:08.112Z,78.60
2018-06-08T15:33:38.351Z,78.60
2018-06-08T15:38:40.785Z,78.60
2018-06-08T15:41:11.129Z,78.40
2018-06-08T15:44:04.689Z,78.20
2018-06-08T15:47:11.109Z,78.30
2018-06-08T15:50:02.973Z,78.00
2018-06-08T15:52:33.946Z,78.20
2018-06-08T15:55:04.846Z,78.00
2018-06-08T15:57:35.167Z,77.60
2018-06-08T16:00:05.914Z,77.10
2018-06-08T16:02:36.295Z,76.80
2018-06-08T16:05:06.806Z,77.00
2018-06-08T16:07:37.256Z,76.80
2018-06-08T16:10:15.053Z,77.00
2018-06-08T16:12:48.315Z,76.60
2018-06-08T16:15:22.858Z,76.40
2018-06-08T16:17:53.328Z,76.20
2018-06-08T16:20:24.440Z,76.30
2018-06-08T16:22:54.955Z,76.10
2018-06-08T16:25:33.948Z,75.70
2018-06-08T16:28:40.109Z,75.50
2018-06-08T16:34:27.619Z,74.30
2018-06-08T16:37:11.794Z,73.50
2018-06-08T16:42:50.966Z,73.10
2018-06-08T16:45:21.612Z,72.80
2018-06-08T16:47:57.407Z,72.50
2018-06-08T16:50:28.751Z,71.90
2018-06-08T16:53:27.932Z,71.60
2018-06-08T16:59:24.637Z,71.10
2018-06-08T17:02:01.499Z,70.70
2018-06-08T17:04:34.877Z,70.30
2018-06-08T17:07:18.418Z,70.20
2018-06-08T17:09:53.471Z,70.30
2018-06-08T17:12:27.169Z,70.10
2018-06-08T17:15:00.710Z,69.70
2018-06-08T17:17:42.915Z,69.40
2018-06-08T17:20:17.742Z,69.40
2018-06-08T17:22:55.443Z,69.40
2018-06-08T17:39:24.313Z,70.00
2018-06-08T17:41:56.165Z,69.90
2018-06-08T17:47:21.206Z,69.60
2018-06-08T17:49:58.085Z,69.90
2018-06-08T18:04:51.700Z,69.90
2018-06-08T18:14:20.498Z,69.70
2018-06-08T18:20:33.800Z,70.10
2018-06-08T19:21:01.877Z,74.40
2018-06-08T19:26:32.712Z,74.80
2018-06-08T19:29:03.215Z,74.80
2018-06-08T19:31:33.680Z,74.60
2018-06-08T19:34:04.233Z,74.50
2018-06-08T19:36:34.646Z,74.30
2018-06-08T19:39:07.302Z,74.30
2018-06-08T19:44:08.040Z,74.40
2018-06-08T19:46:40.836Z,74.50
2018-06-08T19:49:11.977Z,74.60
2018-06-08T19:51:45.206Z,74.80
2018-06-08T19:54:19.871Z,74.60
2018-06-08T19:56:50.338Z,74.40
2018-06-08T19:59:20.799Z,74.30
2018-06-08T20:01:53.673Z,74.30
2018-06-08T20:04:26.467Z,74.40
2018-06-08T20:06:57.917Z,74.50
2018-06-08T20:09:28.588Z,74.80
2018-06-08T20:12:00.818Z,74.90
2018-06-08T20:14:31.153Z,75.10
2018-06-08T20:17:01.583Z,75.40
2018-06-08T20:19:31.937Z,75.60
2018-06-08T20:22:02.389Z,76.00
2018-06-08T20:24:32.696Z,76.40
2018-06-08T20:27:03.021Z,76.60
2018-06-08T20:29:33.393Z,76.60
2018-06-08T20:32:03.679Z,76.80
2018-06-08T20:34:34.134Z,77.00
2018-06-08T20:37:04.470Z,76.30
2018-06-08T20:39:34.898Z,77.20
2018-06-08T20:42:05.331Z,77.50
2018-06-08T20:44:35.777Z,78.00
2018-06-08T20:47:06.574Z,78.50
2018-06-08T20:49:37.182Z,78.90
2018-06-08T20:52:07.543Z,79.50
2018-06-08T20:54:37.940Z,79.80
2018-06-08T20:57:29.412Z,80.30
2018-06-08T20:59:59.672Z,80.50
2018-06-08T21:02:29.984Z,80.80
2018-06-08T21:07:30.273Z,81.10
2018-06-08T21:10:00.670Z,81.50
2018-06-08T21:12:34.811Z,81.60
2018-06-08T21:15:05.575Z,81.80
2018-06-08T21:17:35.723Z,82.00
2018-06-08T21:20:05.974Z,82.10
2018-06-08T21:22:36.168Z,82.20
2018-06-08T21:25:06.319Z,82.40
2018-06-08T21:27:36.554Z,82.50
2018-06-08T21:30:07.096Z,82.50
2018-06-08T21:32:37.249Z,82.50
2018-06-08T21:35:07.590Z,82.60
2018-06-08T21:37:37.944Z,82.60
2018-06-08T21:40:08.255Z,82.70
2018-06-08T21:42:38.463Z,82.90
2018-06-08T21:45:08.683Z,82.80
2018-06-08T21:47:38.901Z,82.90
2018-06-08T21:50:09.052Z,82.90
2018-06-08T21:52:39.239Z,82.90
2018-06-08T21:55:09.464Z,83.20
2018-06-08T21:57:39.619Z,83.20
2018-06-08T22:00:10.016Z,83.20
2018-06-08T22:02:40.177Z,83.20
2018-06-08T22:05:10.343Z,83.00
2018-06-08T22:07:40.649Z,83.30
2018-06-08T22:10:10.788Z,83.10
2018-06-08T22:12:41.011Z,83.30
2018-06-08T22:15:11.175Z,83.50
2018-06-08T22:17:41.261Z,83.60
2018-06-08T22:20:11.492Z,83.60
2018-06-08T22:22:41.719Z,83.70
2018-06-08T22:25:11.975Z,84.00
2018-06-08T22:27:42.181Z,84.10
2018-06-08T22:30:12.300Z,84.30
2018-06-08T22:32:42.463Z,84.40
2018-06-08T22:35:12.548Z,84.80
2018-06-08T22:37:42.752Z,84.90
2018-06-08T22:40:12.863Z,84.90
2018-06-08T22:42:44.053Z,85.00
2018-06-08T22:45:14.211Z,85.00
2018-06-08T22:47:44.456Z,85.00
2018-06-08T22:50:14.595Z,84.80
2018-06-08T22:52:44.814Z,84.70
2018-06-08T22:55:14.927Z,84.50
2018-06-08T22:57:45.119Z,84.50
2018-06-08T23:00:19.668Z,84.40
2018-06-08T23:02:49.940Z,84.60
2018-06-08T23:05:20.143Z,84.80
2018-06-08T23:07:50.303Z,84.70
2018-06-08T23:10:20.484Z,84.90
2018-06-08T23:12:50.563Z,85.00
2018-06-08T23:15:20.708Z,84.90
2018-06-08T23:17:50.886Z,85.00
2018-06-08T23:20:21.023Z,84.80
2018-06-08T23:22:51.220Z,84.60
2018-06-08T23:25:22.083Z,84.40
2018-06-08T23:27:52.346Z,84.20
2018-06-08T23:30:22.482Z,83.90
2018-06-08T23:32:52.615Z,83.80
2018-06-08T23:35:22.768Z,83.60
2018-06-08T23:37:52.902Z,83.30
2018-06-08T23:40:23.069Z,83.10
2018-06-08T23:42:53.215Z,83.00
2018-06-08T23:45:23.370Z,82.60
2018-06-08T23:47:53.572Z,82.40
2018-06-08T23:50:23.691Z,82.00
2018-06-08T23:52:53.805Z,81.60
2018-06-08T23:55:23.985Z,81.30
2018-06-08T23:57:54.003Z,80.60
